Time;durP1;ratioP1;P1;durP2;ratioP2;P2;SDS_P1;SDS_P2;PMS_P1;PMS_P2;Temp;Humidity;BMP_temperature;BMP_pressure;BME280_temperature;BME280_humidity;BME280_pressure;Samples;Min_cycle;Max_cycle;Signal;HPM_P1;HPM_P2
2022/06/23 00:00:14;;;;;;;9.53;6.40;;;;;;;11.14;75.60;98657.36;2236773;79;21354;-80
2022/06/23 00:03:14;;;;;;;16.73;7.35;;;;;;;11.10;75.49;98653.41;2236418;79;20932;-80
2022/06/23 00:06:14;;;;;;;9.50;6.17;;;;;;;11.06;75.59;98650.34;2237369;79;20947;-80
2022/06/23 00:09:15;;;;;;;8.27;6.57;;;;;;;11.03;75.53;98660.77;2237462;79;20936;-80
2022/06/23 00:12:15;;;;;;;9.67;6.77;;;;;;;10.92;75.41;98652.84;2237140;79;21307;-80
2022/06/23 00:15:15;;;;;;;8.73;6.73;;;;;;;10.87;75.86;98651.06;2237397;79;21011;-80
2022/06/23 00:18:16;;;;;;;10.37;6.83;;;;;;;10.85;76.01;98650.63;2237347;79;20943;-80
2022/06/23 00:21:16;;;;;;;48.53;8.97;;;;;;;10.83;76.10;98648.44;2237300;79;20955;-79
2022/06/23 00:24:17;;;;;;;17.17;7.40;;;;;;;10.96;79.64;98650.70;2237434;79;20924;-79
2022/06/23 00:27:17;;;;;;;10.60;6.90;;;;;;;11.16;76.55;98649.09;2237181;79;20970;-79
2022/06/23 00:30:17;;;;;;;7.80;6.57;;;;;;;11.13;76.16;98651.69;2237592;79;20983;-79
2022/06/23 00:33:18;;;;;;;8.37;7.00;;;;;;;11.05;75.76;98657.73;2237425;79;20983;-79
2022/06/23 00:36:18;;;;;;;8.73;7.20;;;;;;;10.99;75.88;98652.46;2237101;79;20967;-79
2022/06/23 00:39:19;;;;;;;23.30;8.50;;;;;;;10.92;75.63;98654.16;2237455;79;20972;-79
2022/06/23 00:42:21;;;;;;;7.60;6.80;;;;;;;10.84;75.85;98650.61;2237545;79;21308;-79
2022/06/23 00:45:20;;;;;;;13.23;6.67;;;;;;;10.75;76.09;98652.72;2237454;79;20952;-79
2022/06/23 00:48:20;;;;;;;10.87;7.23;;;;;;;10.67;75.90;98657.00;2237274;79;20962;-79
2022/06/23 00:51:20;;;;;;;11.43;6.87;;;;;;;10.53;75.83;98655.58;2237724;78;20968;-79
2022/06/23 00:54:21;;;;;;;13.10;7.50;;;;;;;10.52;76.49;98655.57;2237397;79;20920;-79
2022/06/23 00:57:21;;;;;;;14.63;7.40;;;;;;;10.51;76.51;98656.43;2238282;79;20958;-81
2022/06/23 01:00:22;;;;;;;11.07;7.30;;;;;;;10.44;76.50;98662.02;2238433;79;21379;-80
2022/06/23 01:03:22;;;;;;;10.77;7.23;;;;;;;10.36;76.25;98661.47;2238083;80;20963;-80
2022/06/23 01:06:22;;;;;;;11.03;7.47;;;;;;;10.32;76.62;98660.57;2238128;80;20924;-79
2022/06/23 01:09:23;;;;;;;8.93;7.00;;;;;;;10.33;76.83;98664.05;2237876;79;21335;-80
2022/06/23 01:12:23;;;;;;;9.27;7.60;;;;;;;10.31;76.91;98661.86;2237799;79;20930;-80
2022/06/23 01:15:24;;;;;;;10.63;7.00;;;;;;;10.27;76.89;98657.04;2237288;79;21007;-81
2022/06/23 01:18:24;;;;;;;10.13;6.60;;;;;;;10.20;76.83;98658.71;2237569;79;20952;-79
2022/06/23 01:21:25;;;;;;;10.33;6.43;;;;;;;10.13;76.77;98655.56;2238202;79;20971;-79
2022/06/23 01:24:25;;;;;;;194.43;15.67;;;;;;;10.06;76.81;98656.78;2238024;79;20940;-80
2022/06/23 01:27:25;;;;;;;23.87;6.67;;;;;;;10.06;76.96;98652.44;2238355;79;20939;-81
2022/06/23 01:30:26;;;;;;;11.43;6.90;;;;;;;10.02;76.95;98652.39;2238510;79;20948;-79
2022/06/23 01:33:26;;;;;;;8.97;6.53;;;;;;;10.02;77.11;98655.00;2238491;79;20944;-80
2022/06/23 01:36:27;;;;;;;19.57;7.43;;;;;;;10.01;77.00;98658.04;2238226;80;21006;-79
2022/06/23 01:39:27;;;;;;;26.03;7.70;;;;;;;10.00;77.03;98659.33;2238516;79;20939;-80
2022/06/23 01:42:27;;;;;;;89.70;11.77;;;;;;;9.95;77.04;98661.88;2238060;79;20931;-80
2022/06/23 01:45:28;;;;;;;11.27;7.23;;;;;;;9.94;77.43;98662.73;2237955;79;20974;-80
2022/06/23 01:51:47;;;;;;;14.53;7.37;;;;;;;9.87;76.88;98671.34;2229297;80;21052;-81
2022/06/23 01:54:48;;;;;;;10.83;6.33;;;;;;;9.84;77.16;98669.58;2211480;79;20937;-81
2022/06/23 01:57:48;;;;;;;17.30;6.93;;;;;;;9.82;77.08;98674.33;2211491;79;20925;-81
2022/06/23 02:00:48;;;;;;;13.57;6.87;;;;;;;9.81;77.13;98673.88;2211420;79;20933;-80
2022/06/23 02:03:49;;;;;;;11.70;6.90;;;;;;;9.78;77.09;98676.45;2211894;79;20882;-80
2022/06/23 02:06:49;;;;;;;30.47;8.77;;;;;;;9.76;77.11;98676.43;2211484;79;20995;-81
2022/06/23 02:09:50;;;;;;;12.03;7.13;;;;;;;9.71;77.20;98678.53;2211608;79;20973;-81
2022/06/23 02:12:50;;;;;;;15.47;7.63;;;;;;;9.68;77.18;98679.80;2210945;79;20937;-81
2022/06/23 02:15:51;;;;;;;12.43;7.47;;;;;;;9.67;77.22;98676.74;2211702;79;20882;-82
2022/06/23 02:18:51;;;;;;;22.13;7.73;;;;;;;9.64;77.17;98681.48;2210903;79;20956;-82
2022/06/23 02:21:51;;;;;;;12.67;7.10;;;;;;;9.60;77.39;98680.13;2211233;79;21320;-81
2022/06/23 02:24:52;;;;;;;17.67;7.50;;;;;;;9.56;77.15;98685.30;2211575;79;20913;-81
2022/06/23 02:27:52;;;;;;;18.93;7.87;;;;;;;9.56;77.27;98684.00;2211601;79;20956;-80
2022/06/23 02:30:52;;;;;;;13.27;6.17;;;;;;;9.58;77.21;98687.50;2211148;81;20956;-81
2022/06/23 02:33:53;;;;;;;23.40;8.47;;;;;;;9.58;77.22;98687.92;2211179;79;20933;-80
2022/06/23 02:36:53;;;;;;;26.70;9.10;;;;;;;9.57;77.34;98693.56;2211131;79;20981;-80
2022/06/23 02:39:54;;;;;;;18.63;8.20;;;;;;;9.61;81.25;98692.30;2211080;79;20893;-80
2022/06/23 02:42:54;;;;;;;12.80;7.47;;;;;;;11.37;81.06;98698.03;2210700;79;20972;-80
2022/06/23 02:45:54;;;;;;;15.73;7.00;;;;;;;11.52;75.92;98701.61;2210800;79;20913;-79
2022/06/23 02:48:55;;;;;;;18.37;6.93;;;;;;;11.06;74.07;98701.27;2210772;79;20917;-81
2022/06/23 02:51:55;;;;;;;16.87;7.13;;;;;;;10.71;74.07;98707.08;2218771;79;21011;-80
2022/06/23 02:54:56;;;;;;;13.33;6.70;;;;;;;10.50;74.36;98712.97;2237531;79;20955;-80
2022/06/23 02:57:58;;;;;;;12.33;6.40;;;;;;;10.36;74.61;98721.48;2237758;79;20963;-80
2022/06/23 03:00:57;;;;;;;22.20;6.97;;;;;;;10.27;74.81;98725.30;2237719;79;20958;-80
2022/06/23 03:03:57;;;;;;;14.20;6.17;;;;;;;10.15;75.07;98721.66;2237775;79;20959;-81
2022/06/23 03:06:57;;;;;;;12.07;6.77;;;;;;;10.96;75.92;98715.13;2236542;79;21002;-81
2022/06/23 03:09:58;;;;;;;13.03;6.30;;;;;;;10.89;73.97;98715.93;2237506;79;21022;-81
2022/06/23 03:12:58;;;;;;;15.67;7.00;;;;;;;10.65;73.80;98718.77;2237482;79;21383;-79
2022/06/23 03:15:58;;;;;;;12.57;6.30;;;;;;;10.52;74.19;98718.20;2237774;79;20963;-79
2022/06/23 03:18:59;;;;;;;13.77;7.03;;;;;;;10.43;74.23;98724.64;2237953;79;20962;-80
2022/06/23 03:21:59;;;;;;;10.30;6.33;;;;;;;10.34;74.48;98729.30;2237529;79;20990;-80
2022/06/23 03:25:00;;;;;;;9.30;6.07;;;;;;;10.29;74.67;98735.32;2237550;79;20932;-80
2022/06/23 03:28:00;;;;;;;12.60;6.93;;;;;;;10.25;74.73;98737.02;2236964;79;20990;-81
2022/06/23 03:31:00;;;;;;;14.70;7.40;;;;;;;10.25;75.09;98741.36;2237680;79;20995;-80
2022/06/23 03:34:01;;;;;;;16.57;7.50;;;;;;;10.26;75.35;98740.50;2237084;79;21315;-81
2022/06/23 03:37:01;;;;;;;12.77;7.07;;;;;;;10.30;75.73;98751.42;2237055;79;21045;-82
2022/06/23 03:43:21;;;;;;;16.70;7.43;;;;;;;10.35;76.09;98751.05;2236363;80;21004;-81
2022/06/23 03:46:21;;;;;;;36.13;8.07;;;;;;;10.40;76.14;98748.05;2236633;79;20960;-82
2022/06/23 03:49:22;;;;;;;15.67;7.20;;;;;;;10.49;76.91;98746.45;2237251;79;20940;-81
2022/06/23 03:52:22;;;;;;;12.87;7.20;;;;;;;10.53;76.78;98746.05;2239771;78;20975;-81
2022/06/23 03:55:22;;;;;;;14.07;6.60;;;;;;;10.59;76.81;98747.42;2237843;79;20927;-82
2022/06/23 03:58:23;;;;;;;17.03;6.90;;;;;;;10.65;77.07;98750.09;2236391;79;20986;-81
2022/06/23 04:01:23;;;;;;;17.30;7.40;;;;;;;10.74;77.68;98747.57;2236036;79;20939;-81
2022/06/23 04:04:24;;;;;;;11.87;7.00;;;;;;;10.99;76.98;98755.62;2236974;79;20943;-81
2022/06/23 04:07:24;;;;;;;12.07;6.80;;;;;;;11.19;76.92;98752.75;2237097;79;21014;-82
2022/06/23 04:10:24;;;;;;;18.43;7.67;;;;;;;11.39;77.14;98756.42;2236086;79;20975;-82
2022/06/23 04:13:25;;;;;;;12.88;7.50;;;;;;;11.67;77.18;98760.52;2236593;79;20967;-84
2022/06/23 04:16:25;;;;;;;17.82;7.67;;;;;;;12.00;77.18;98766.40;2236120;79;20954;-82
2022/06/23 04:19:26;;;;;;;21.90;7.62;;;;;;;12.33;76.96;98768.31;2235055;79;20983;-83
2022/06/23 04:22:26;;;;;;;16.87;7.85;;;;;;;12.69;76.87;98771.47;2235010;79;21457;-82
2022/06/23 04:25:26;;;;;;;14.75;7.72;;;;;;;12.99;76.27;98771.95;2233897;79;20955;-81
2022/06/23 04:28:27;;;;;;;26.50;8.33;;;;;;;13.27;75.99;98774.22;2234517;79;20987;-82
2022/06/23 04:31:27;;;;;;;19.42;9.43;;;;;;;13.60;75.81;98782.50;2234153;79;21003;-82
2022/06/23 04:34:28;;;;;;;19.50;10.00;;;;;;;13.93;75.79;98783.78;2234118;79;21006;-81
2022/06/23 04:37:28;;;;;;;97.78;15.78;;;;;;;14.26;75.14;98785.86;2233693;79;21038;-82
2022/06/23 04:40:28;;;;;;;48.00;12.20;;;;;;;14.54;74.39;98790.14;2233866;79;20990;-82
2022/06/23 04:43:32;;;;;;;92.97;15.65;;;;;;;14.87;74.20;98794.81;2234713;79;20975;-83
2022/06/23 04:46:32;;;;;;;1144.13;108.23;;;;;;;15.17;73.49;98789.34;2235411;79;20991;-82
2022/06/23 04:49:33;;;;;;;319.62;31.17;;;;;;;15.33;72.90;98794.48;2235184;79;20943;-83
2022/06/23 04:52:33;;;;;;;175.40;21.62;;;;;;;15.67;72.64;98802.58;2225643;78;21498;-82
2022/06/23 04:55:33;;;;;;;66.67;15.38;;;;;;;16.00;71.87;98799.19;2206752;79;21000;-82
2022/06/23 04:58:34;;;;;;;99.72;14.93;;;;;;;16.23;70.88;98809.02;2207817;79;20976;-79
2022/06/23 05:01:34;;;;;;;51.80;15.63;;;;;;;16.49;70.44;98812.69;2207540;79;20979;-78
2022/06/23 05:04:35;;;;;;;529.35;51.15;;;;;;;16.78;70.06;98815.86;2207669;79;20913;-81
2022/06/23 05:07:35;;;;;;;132.20;20.20;;;;;;;17.10;69.21;98815.84;2205974;79;20972;-83
2022/06/23 05:10:36;;;;;;;125.42;18.62;;;;;;;17.34;68.35;98817.23;2206990;81;21415;-79
2022/06/23 05:13:36;;;;;;;51.13;13.50;;;;;;;17.58;67.77;98817.31;2207561;79;20978;-79
2022/06/23 05:16:36;;;;;;;13.72;9.88;;;;;;;17.85;66.79;98813.36;2205995;79;20944;-78
2022/06/23 05:19:37;;;;;;;49.70;10.90;;;;;;;18.14;65.74;98818.98;2204908;79;20985;-79
2022/06/23 05:22:37;;;;;;;22.42;8.65;;;;;;;18.35;64.67;98817.72;2206178;81;20921;-79
2022/06/23 05:25:37;;;;;;;21.02;6.80;;;;;;;18.51;63.42;98822.25;2206566;79;21872;-81
2022/06/23 05:28:38;;;;;;;37.15;7.95;;;;;;;18.74;61.77;98829.28;2206296;81;21025;-80
2022/06/23 05:31:38;;;;;;;16.60;7.17;;;;;;;18.89;60.59;98832.05;2205941;79;20999;-79
2022/06/23 05:34:39;;;;;;;27.07;8.33;;;;;;;19.11;60.46;98838.64;2206194;79;21679;-78
2022/06/23 05:37:39;;;;;;;304.82;26.77;;;;;;;19.28;60.23;98844.86;2203169;79;21047;-76
2022/06/23 05:40:39;;;;;;;32.17;7.75;;;;;;;19.48;60.16;98838.65;2204242;81;20940;-77
2022/06/23 05:43:40;;;;;;;8.78;6.90;;;;;;;19.64;59.43;98839.17;2205485;79;20983;-79
2022/06/23 05:46:40;;;;;;;37.45;8.70;;;;;;;19.73;58.71;98842.47;2206818;81;21375;-80
2022/06/23 05:49:41;;;;;;;9.88;5.47;;;;;;;19.85;58.78;98841.28;2206518;79;20980;-80
2022/06/23 05:52:41;;;;;;;10.82;6.12;;;;;;;20.06;58.07;98838.56;2212647;79;21026;-79
2022/06/23 05:55:41;;;;;;;9.33;6.55;;;;;;;20.22;57.05;98838.56;2234028;79;20963;-77
2022/06/23 05:58:44;;;;;;;73.12;11.08;;;;;;;20.32;56.69;98843.16;2232428;79;20995;-78
2022/06/23 06:01:42;;;;;;;6.55;5.78;;;;;;;20.40;56.93;98844.31;2233828;79;20978;-80
2022/06/23 06:04:43;;;;;;;8.80;5.87;;;;;;;20.52;56.70;98846.16;2234292;80;20983;-80
2022/06/23 06:07:43;;;;;;;9.95;5.30;;;;;;;20.66;56.45;98844.44;2232072;79;21043;-78
2022/06/23 06:10:43;;;;;;;6.95;4.92;;;;;;;20.79;55.32;98851.13;2230350;79;21383;-78
2022/06/23 06:13:44;;;;;;;6.78;4.17;;;;;;;20.85;54.55;98849.66;2231522;79;21045;-78
2022/06/23 06:16:44;;;;;;;14.23;4.87;;;;;;;20.84;53.74;98846.59;2231732;80;20939;-78
2022/06/23 06:19:45;;;;;;;5.70;4.17;;;;;;;20.93;53.66;98856.06;2232824;80;21035;-78
2022/06/23 06:22:45;;;;;;;6.53;4.08;;;;;;;21.04;52.70;98857.94;2233180;80;20931;-78
2022/06/23 06:25:46;;;;;;;6.12;4.10;;;;;;;21.12;52.70;98864.34;2231159;79;20990;-77
2022/06/23 06:28:46;;;;;;;5.25;3.72;;;;;;;21.24;50.95;98867.52;2230858;79;21358;-77
2022/06/23 06:31:46;;;;;;;5.33;3.17;;;;;;;21.46;51.93;98869.50;2231610;79;21011;-77
2022/06/23 06:34:47;;;;;;;2.72;2.50;;;;;;;21.69;50.50;98867.47;2230708;78;20947;-77
2022/06/23 06:37:47;;;;;;;5.60;2.98;;;;;;;21.78;49.49;98876.00;2230219;79;21425;-78
2022/06/23 06:40:48;;;;;;;7.33;2.87;;;;;;;21.88;48.81;98876.56;2230095;79;21010;-77
2022/06/23 06:43:48;;;;;;;5.72;3.02;;;;;;;22.12;48.01;98879.76;2230285;79;20974;-78
2022/06/23 06:46:48;;;;;;;3.17;2.45;;;;;;;22.35;47.72;98884.28;2231706;80;21367;-78
2022/06/23 06:49:49;;;;;;;4.90;2.72;;;;;;;22.47;48.17;98873.20;2231547;79;21006;-78
2022/06/23 06:52:49;;;;;;;6.33;2.90;;;;;;;22.72;46.49;98874.55;2224743;79;21000;-78
2022/06/23 06:55:50;;;;;;;4.65;2.87;;;;;;;23.00;47.20;98872.22;2205838;81;21847;-78
2022/06/23 06:58:51;;;;;;;4.28;2.30;;;;;;;23.23;46.54;98875.33;2206840;79;20932;-78
2022/06/23 07:01:50;;;;;;;5.37;2.58;;;;;;;23.31;43.79;98878.09;2204266;79;21023;-78
2022/06/23 07:04:51;;;;;;;5.97;2.47;;;;;;;23.31;44.19;98876.77;2205686;79;22039;-78
2022/06/23 07:07:51;;;;;;;9.15;2.75;;;;;;;23.35;44.15;98883.70;2204485;79;21015;-77
2022/06/23 07:10:52;;;;;;;4.37;2.65;;;;;;;23.38;43.80;98881.38;2205540;79;21274;-78
2022/06/23 07:13:52;;;;;;;2.40;2.30;;;;;;;23.58;43.93;98877.53;2205568;79;21545;-79
2022/06/23 07:16:53;;;;;;;3.15;2.52;;;;;;;23.73;43.99;98878.70;2203999;79;21000;-78
2022/06/23 07:19:53;;;;;;;3.35;2.58;;;;;;;23.95;43.40;98880.02;2205228;81;20995;-78
2022/06/23 07:22:54;;;;;;;3.27;2.47;;;;;;;24.03;41.16;98881.89;2204895;79;21026;-78
2022/06/23 07:25:54;;;;;;;2.62;2.30;;;;;;;23.82;41.78;98886.32;2206373;79;20996;-78
2022/06/23 07:28:54;;;;;;;2.62;2.17;;;;;;;24.05;41.91;98886.23;2205558;79;21387;-79
2022/06/23 07:31:54;;;;;;;3.98;2.40;;;;;;;24.20;39.25;98887.84;2204600;79;21023;-78
2022/06/23 07:34:55;;;;;;;3.50;2.37;;;;;;;24.15;41.00;98886.71;2206085;79;20933;-78
2022/06/23 07:37:55;;;;;;;12.50;3.55;;;;;;;24.25;39.99;98892.05;2204449;81;21967;-78
2022/06/23 07:40:56;;;;;;;35.13;4.17;;;;;;;24.34;40.47;98901.06;2205130;79;20948;-78
2022/06/23 07:43:56;;;;;;;10.10;3.12;;;;;;;24.45;40.83;98901.93;2205798;79;20960;-80
2022/06/23 07:46:56;;;;;;;5.95;2.50;;;;;;;24.64;41.05;98897.52;2206772;79;21051;-81
2022/06/23 07:49:57;;;;;;;6.62;2.67;;;;;;;24.45;40.44;98902.80;2206466;79;20913;-80
2022/06/23 07:52:57;;;;;;;10.00;2.92;;;;;;;24.11;42.15;98908.64;2212994;79;21015;-80
2022/06/23 07:55:58;;;;;;;4.58;2.50;;;;;;;24.47;42.94;98908.06;2234441;79;21357;-80
2022/06/23 07:58:58;;;;;;;34.27;5.75;;;;;;;24.71;39.88;98914.99;2234263;79;20983;-82
2022/06/23 08:01:59;;;;;;;8.05;2.30;;;;;;;24.77;41.05;98905.84;2233915;80;20998;-80
2022/06/23 08:04:59;;;;;;;5.90;2.52;;;;;;;24.36;37.73;98910.33;2234013;79;21018;-81
2022/06/23 08:08:00;;;;;;;3.25;2.40;;;;;;;24.14;41.32;98911.17;2234736;79;20962;-81
2022/06/23 08:14:37;;;;;;;8.98;2.60;;;;;;;25.01;37.91;98912.78;2228003;80;20952;-80
2022/06/23 08:17:38;;;;;;;5.33;2.20;;;;;;;24.96;39.43;98899.20;2196861;80;21302;-81
2022/06/23 08:20:38;;;;;;;80.25;8.00;;;;;;;24.61;38.93;98896.78;2227354;80;20935;-81
2022/06/23 08:23:38;;;;;;;16.80;3.98;;;;;;;24.49;39.96;98899.99;2226902;80;20968;-82
2022/06/23 08:26:39;;;;;;;8.60;2.85;;;;;;;24.14;40.17;98899.17;2227874;80;21347;-80
2022/06/23 08:29:39;;;;;;;2.87;2.08;;;;;;;24.52;39.43;98895.39;2226999;80;20959;-81
2022/06/23 08:32:40;;;;;;;6.90;2.80;;;;;;;25.07;39.12;98902.28;2227337;80;20979;-79
2022/06/23 08:35:40;;;;;;;8.85;2.75;;;;;;;25.58;38.31;98900.80;2227529;80;21410;-83
2022/06/23 08:38:40;;;;;;;2.65;1.90;;;;;;;26.05;38.40;98912.38;2226972;80;21018;-79
2022/06/23 08:41:41;;;;;;;4.00;2.27;;;;;;;25.45;36.40;98919.23;2226923;80;20988;-78
2022/06/23 08:44:41;;;;;;;13.28;3.25;;;;;;;24.50;37.59;98914.60;2227885;80;20955;-82
2022/06/23 08:47:42;;;;;;;3.40;2.12;;;;;;;24.31;40.01;98915.00;2228213;80;21304;-80
2022/06/23 08:50:42;;;;;;;16.37;2.80;;;;;;;24.61;40.87;98908.33;2227907;80;21015;-80
2022/06/23 08:53:42;;;;;;;6.03;2.17;;;;;;;25.14;40.52;98905.07;2227064;80;20944;-79
2022/06/23 08:56:43;;;;;;;4.72;2.10;;;;;;;25.62;39.83;98915.75;2226838;80;20932;-80
2022/06/23 08:59:43;;;;;;;133.72;11.97;;;;;;;26.06;37.92;98917.64;2228197;80;20983;-82
2022/06/23 09:02:44;;;;;;;29.82;4.40;;;;;;;26.50;36.74;98911.87;2228999;80;21003;-81
2022/06/23 09:05:44;;;;;;;84.28;9.15;;;;;;;26.91;34.34;98913.74;2228881;80;20951;-80
2022/06/23 09:08:44;;;;;;;74.85;5.87;;;;;;;26.35;34.60;98917.55;2224395;80;21738;-81
2022/06/23 09:11:45;;;;;;;9.70;3.50;;;;;;;25.98;34.76;98924.68;2188789;81;20973;-82
2022/06/23 09:14:45;;;;;;;2.98;2.10;;;;;;;25.45;34.57;98923.70;2193391;81;20913;-82
2022/06/23 09:17:46;;;;;;;2.62;1.98;;;;;;;24.84;34.73;98923.79;2194417;81;20952;-82
2022/06/23 09:20:46;;;;;;;2.60;2.40;;;;;;;24.61;36.39;98920.34;2194821;81;20928;-83
2022/06/23 09:23:46;;;;;;;9.10;2.70;;;;;;;24.51;36.84;98920.34;2194252;81;20944;-84
2022/06/23 09:26:47;;;;;;;50.63;5.30;;;;;;;24.42;38.18;98922.07;2194714;81;21004;-83
2022/06/23 09:29:47;;;;;;;2.58;1.95;;;;;;;24.94;36.92;98925.11;2193507;81;20921;-83
2022/06/23 09:32:48;;;;;;;3.05;1.70;;;;;;;24.88;36.59;98921.38;2194359;81;20944;-82
2022/06/23 09:35:48;;;;;;;7.12;2.17;;;;;;;24.67;36.03;98924.07;2192995;81;20920;-82
2022/06/23 09:38:49;;;;;;;2.17;2.08;;;;;;;24.39;35.32;98923.54;2194088;81;21024;-80
2022/06/23 09:41:49;;;;;;;7.97;2.35;;;;;;;24.58;36.20;98927.14;2194057;81;21492;-83
2022/06/23 09:44:49;;;;;;;4.70;2.00;;;;;;;25.02;36.72;98927.00;2193590;81;20936;-82
2022/06/23 09:47:50;;;;;;;57.83;5.22;;;;;;;25.54;36.00;98927.27;2193696;81;20925;-82
2022/06/23 09:50:50;;;;;;;6.75;2.72;;;;;;;25.43;36.87;98930.45;2194449;81;21437;-77
2022/06/23 09:53:51;;;;;;;6.97;2.55;;;;;;;25.17;36.08;98932.14;2194632;81;20957;-81
2022/06/23 09:56:51;;;;;;;3.20;2.00;;;;;;;25.33;37.41;98927.35;2194708;81;20980;-81
2022/06/23 09:59:51;;;;;;;2.58;2.20;;;;;;;25.86;35.07;98928.43;2195564;81;20952;-82
2022/06/23 10:02:52;;;;;;;2.80;1.80;;;;;;;25.83;36.39;98918.75;2194727;81;20965;-82
2022/06/23 10:05:52;;;;;;;2.10;1.90;;;;;;;25.79;36.08;98928.33;2194009;81;21403;-82
2022/06/23 10:08:53;;;;;;;2.77;2.20;;;;;;;25.92;36.17;98919.64;2194498;80;20965;-84
2022/06/23 10:11:53;;;;;;;2.10;1.90;;;;;;;25.82;35.71;98917.02;2223276;80;20932;-82
2022/06/23 10:14:53;;;;;;;2.37;2.00;;;;;;;25.68;36.66;98927.05;2220932;80;20946;-81
2022/06/23 10:17:54;;;;;;;2.47;2.22;;;;;;;25.77;36.80;98928.41;2209725;81;20949;-78
2022/06/23 10:20:54;;;;;;;2.35;1.90;;;;;;;25.87;36.04;98924.81;2209465;81;20925;-82
2022/06/23 10:23:55;;;;;;;3.85;2.10;;;;;;;26.05;35.04;98917.72;2211128;81;20932;-85
2022/06/23 10:26:55;;;;;;;3.33;2.10;;;;;;;26.43;34.28;98914.00;2210685;81;20964;-82
2022/06/23 10:29:58;;;;;;;6.83;2.20;;;;;;;26.63;33.90;98911.63;2210034;81;20976;-82
2022/06/23 10:32:58;;;;;;;20.00;2.93;;;;;;;26.90;33.30;98909.34;2189252;81;21371;-82
2022/06/23 10:35:58;;;;;;;6.15;2.20;;;;;;;27.11;34.86;98904.66;2210517;81;20956;-81
2022/06/23 10:38:59;;;;;;;6.30;2.12;;;;;;;27.21;34.04;98902.73;2210863;81;20932;-81
2022/06/23 10:41:59;;;;;;;5.25;1.90;;;;;;;27.42;33.54;98901.16;2211708;81;20980;-80
2022/06/23 10:45:00;;;;;;;53.73;6.40;;;;;;;27.56;32.81;98896.75;2210706;81;21319;-81
2022/06/23 10:48:00;;;;;;;14.90;2.87;;;;;;;27.44;31.57;98907.30;2210357;81;20928;-81
2022/06/23 10:51:00;;;;;;;12.68;3.10;;;;;;;27.38;31.60;98908.98;2209197;81;20960;-83
2022/06/23 10:54:01;;;;;;;3.17;2.22;;;;;;;27.73;31.68;98901.19;2210592;81;20971;-80
2022/06/23 10:57:01;;;;;;;144.28;14.68;;;;;;;27.88;31.72;98903.50;2209943;81;21438;-78
2022/06/23 11:00:02;;;;;;;61.68;5.85;;;;;;;28.41;31.32;98893.66;2210633;81;20962;-79
2022/06/23 11:03:02;;;;;;;17.20;2.80;;;;;;;28.41;31.32;98893.66;2210467;81;20897;-81
2022/06/23 11:06:02;;;;;;;23.45;4.12;;;;;;;28.70;30.52;98893.75;2208864;81;20952;-80
2022/06/23 11:09:03;;;;;;;22.87;3.62;;;;;;;28.81;30.26;98883.20;2208044;81;20983;-80
2022/06/23 11:12:03;;;;;;;12.00;2.77;;;;;;;28.95;29.75;98889.96;2209201;81;20995;-80
2022/06/23 11:15:04;;;;;;;46.20;4.58;;;;;;;29.06;29.60;98886.13;2209425;81;20964;-80
2022/06/23 11:18:04;;;;;;;11.85;2.95;;;;;;;28.95;29.27;98880.56;2208536;81;20941;-80
2022/06/23 11:21:04;;;;;;;3.20;2.00;;;;;;;28.63;30.81;98888.37;2210095;81;20952;-81
2022/06/23 11:24:05;;;;;;;4.28;2.10;;;;;;;28.65;31.02;98888.66;2209870;81;20956;-81
2022/06/23 11:27:07;;;;;;;8.50;2.23;;;;;;;28.54;30.11;98887.07;2188364;81;20957;-82
2022/06/23 11:30:08;;;;;;;7.53;2.58;;;;;;;28.49;29.38;98887.35;2210816;81;21275;-80
2022/06/23 11:33:08;;;;;;;2.15;1.95;;;;;;;28.44;29.92;98881.39;2209734;81;21332;-80
2022/06/23 11:36:09;;;;;;;2.33;2.10;;;;;;;28.08;28.89;98888.45;2208997;81;20921;-80
2022/06/23 11:39:09;;;;;;;19.12;3.42;;;;;;;28.20;29.79;98882.83;2208718;81;20976;-82
2022/06/23 11:42:09;;;;;;;5.12;1.80;;;;;;;28.45;30.86;98883.13;2208833;81;20901;-79
2022/06/23 11:45:10;;;;;;;1.95;1.80;;;;;;;28.35;29.42;98885.11;2208639;81;20941;-79
2022/06/23 11:48:10;;;;;;;3.65;2.10;;;;;;;28.37;29.86;98886.75;2209082;81;20948;-79
2022/06/23 11:51:11;;;;;;;2.20;1.72;;;;;;;28.36;29.41;98882.81;2208648;81;20931;-77
2022/06/23 11:54:11;;;;;;;3.90;1.90;;;;;;;28.46;29.75;98872.77;2207618;81;20959;-78
2022/06/23 11:57:11;;;;;;;2.33;1.70;;;;;;;28.72;29.32;98872.55;2208043;81;20996;-79
2022/06/23 12:00:12;;;;;;;4.78;2.12;;;;;;;28.91;27.68;98874.13;2206818;81;20951;-78
2022/06/23 12:03:12;;;;;;;2.10;1.85;;;;;;;28.90;27.71;98874.61;2207231;81;20972;-78
2022/06/23 12:06:13;;;;;;;3.08;1.62;;;;;;;29.11;27.65;98869.70;2207405;81;20913;-78
2022/06/23 12:09:13;;;;;;;2.02;1.82;;;;;;;29.04;26.98;98872.40;2206974;81;20963;-78
2022/06/23 12:12:13;;;;;;;2.70;1.90;;;;;;;28.83;27.19;98871.89;2203668;81;20941;-78
2022/06/23 12:15:14;;;;;;;3.27;1.98;;;;;;;28.59;27.83;98870.20;2206969;81;20944;-78
2022/06/23 12:18:14;;;;;;;3.20;1.72;;;;;;;28.78;28.41;98879.37;2207663;81;20936;-79
2022/06/23 12:21:15;;;;;;;3.60;2.20;;;;;;;29.21;28.39;98874.88;2206849;81;20971;-78
2022/06/23 12:24:15;;;;;;;1.98;1.75;;;;;;;29.52;28.46;98875.18;2206341;81;20968;-77
2022/06/23 12:27:16;;;;;;;2.72;1.92;;;;;;;29.71;27.40;98870.32;2206718;81;20932;-77
2022/06/23 12:30:16;;;;;;;7.40;2.08;;;;;;;29.64;28.10;98874.38;2208376;81;20959;-78
2022/06/23 12:33:17;;;;;;;2.75;1.60;;;;;;;29.72;27.87;98876.08;2207591;81;21721;-78
2022/06/23 12:36:17;;;;;;;2.22;2.00;;;;;;;29.24;28.53;98886.78;2207528;81;20940;-78
2022/06/23 12:39:17;;;;;;;2.12;1.92;;;;;;;29.04;28.49;98878.64;2206547;81;20936;-78
2022/06/23 12:42:18;;;;;;;4.05;1.82;;;;;;;28.63;28.36;98881.66;2207282;81;21696;-78
2022/06/23 12:45:18;;;;;;;4.20;2.00;;;;;;;28.66;28.68;98880.13;2206658;81;20983;-78
2022/06/23 12:48:19;;;;;;;2.95;2.20;;;;;;;28.74;28.84;98880.52;2207694;81;20988;-76
2022/06/23 12:51:19;;;;;;;2.37;1.80;;;;;;;28.85;28.29;98881.61;2207820;81;21336;-77
2022/06/23 12:54:19;;;;;;;4.75;1.75;;;;;;;28.65;29.24;98882.42;2207015;81;21603;-77
2022/06/23 12:57:20;;;;;;;6.20;1.77;;;;;;;29.01;29.57;98877.97;2207479;81;20936;-77
2022/06/23 13:00:21;;;;;;;2.98;1.95;;;;;;;28.95;29.25;98881.03;2208808;81;20940;-78
2022/06/23 13:03:21;;;;;;;2.20;2.00;;;;;;;28.79;30.04;98882.44;2208705;81;20932;-77
2022/06/23 13:06:21;;;;;;;2.10;1.90;;;;;;;28.89;29.69;98882.77;2209348;81;20960;-80
2022/06/23 13:09:22;;;;;;;2.33;1.90;;;;;;;29.09;29.04;98881.03;2208457;81;21035;-77
2022/06/23 13:12:22;;;;;;;8.50;2.58;;;;;;;29.05;29.44;98884.39;2208031;81;20972;-81
2022/06/23 13:15:22;;;;;;;8.73;2.02;;;;;;;28.81;30.89;98879.17;2210082;80;20960;-80
2022/06/23 13:18:23;;;;;;;5.80;2.10;;;;;;;28.68;30.33;98879.55;2210583;81;20980;-81
2022/06/23 13:21:25;;;;;;;10.00;3.22;;;;;;;28.33;31.29;98875.81;2210621;81;20924;-79
2022/06/23 13:24:26;;;;;;;11.85;3.30;;;;;;;28.21;32.60;98876.51;2209335;81;20924;-79
2022/06/23 13:27:24;;;;;;;2.67;2.37;;;;;;;28.17;31.69;98874.48;2209062;81;21688;-79
2022/06/23 13:30:25;;;;;;;10.03;2.55;;;;;;;27.60;32.16;98873.31;2208777;81;20924;-78
2022/06/23 13:33:26;;;;;;;9.58;2.33;;;;;;;27.47;32.62;98871.80;2207773;81;20948;-77
2022/06/23 13:36:26;;;;;;;5.00;2.50;;;;;;;27.51;33.60;98869.34;2208902;81;20967;-80
2022/06/23 13:39:27;;;;;;;25.55;3.47;;;;;;;27.73;33.70;98864.13;2208865;81;20956;-80
2022/06/23 13:42:27;;;;;;;4.60;2.20;;;;;;;27.71;33.73;98864.20;2210213;81;21008;-81
2022/06/23 13:45:27;;;;;;;3.40;2.50;;;;;;;27.61;33.73;98860.33;2211552;81;20940;-80
2022/06/23 13:48:28;;;;;;;6.08;2.50;;;;;;;27.91;32.62;98864.42;2210486;81;20955;-80
2022/06/23 13:51:28;;;;;;;4.97;2.40;;;;;;;28.03;31.77;98858.81;2209797;81;21019;-80
2022/06/23 13:54:32;;;;;;;5.87;2.52;;;;;;;27.97;31.65;98862.73;2210351;81;20937;-81
2022/06/23 13:57:32;;;;;;;;;;;;;;;27.78;32.37;98857.57;2211809;81;20928;-80
2022/06/23 14:00:32;;;;;;;2.17;1.98;;;;;;;27.81;32.20;98857.39;2210167;80;20263;-79
2022/06/23 14:03:33;;;;;;;6.90;2.62;;;;;;;27.75;33.12;98855.54;2211070;81;20983;-80
2022/06/23 14:06:35;;;;;;;4.47;2.35;;;;;;;27.89;32.83;98850.23;2210651;81;20933;-80
2022/06/23 14:09:33;;;;;;;4.92;2.47;;;;;;;28.12;31.86;98850.22;2209586;81;20964;-80
2022/06/23 14:12:34;;;;;;;5.33;2.40;;;;;;;28.13;31.98;98843.42;2209262;81;20999;-80